Frey Ranch - Fallon, Nevada Weather observations

Data are for observation ending at time listed.
 Day   Time    Ave.   Ave.  Ave.  Vector   Max.   Stn.    Total    Solar   Ave.  
  of    of     Air    Rel.  Wind   Wind    Wind   Baro.  Precip.   Rad.    Soil  
Year   Day     Temp.  Hum.  Speed  Dir.    Gust   Pres.                    Temp. 
2016   (PST)    F      %     mph   deg.    mph     mb.     in.     W/m2     F   
------------------------------------------------------------------------------
 272   12:10   88.9    10    2.9   185      6.9   999.0    0.00     843    70.6
 272   12:20   88.7    10    3.6   163      8.0   999.0    0.00     839    70.6
 272   12:30   89.5     9    4.1   205     10.3   999.0    0.00     834    70.6
 272   12:40   89.2    10    4.2   223     13.3   999.0    0.00     827    70.7
 272   12:50   90.3     9    3.0   226      7.0   999.0    0.00     816    70.7
 272   13:00   90.6     9    3.7   203      9.6   999.0    0.00     804    70.8
 272   13:10   91.9     9    2.1   165      5.3   999.0    0.00     791    70.8
 272   13:20   91.9     9    3.1   203      6.8   999.0    0.00     776    70.9
 272   13:30   91.5     9    3.6   166      6.4   999.0    0.00     760    71.0
 272   13:40   91.7     8    2.8   215      7.0   999.0    0.00     745    71.0
 272   13:50   91.7     8    3.1   212      6.5   999.0    0.00     724    71.1
 272   14:00   91.2     9    3.5   162      6.9   999.0    0.00     703    71.2
 272   14:10   91.4     8    3.6   164      8.0   999.0    0.00     680    71.3
 272   14:20   92.1     8    2.5   158      5.6   999.0    0.00     666    71.4
 272   14:30   91.4     9    4.3    83      8.2   999.0    0.00     644    71.4
 272   14:40   91.2     9    2.9    86      8.6   999.0    0.00     613    71.5
 272   14:50   92.7     8    2.3     8      4.9   999.0    0.00     597    71.6
 272   15:00   91.6     9    3.6    76      7.6   999.0    0.00     589    71.7
 272   15:10   91.7     9    3.2    70      9.4   999.0    0.00     578    71.8
 272   15:20   92.1     9    2.8   344      6.3   999.0    0.00     533    71.9
 272   15:30   93.0     8    2.0     9      4.3   999.0    0.00     476    72.0
 272   15:40   92.1     9    2.9    63      5.9   999.0    0.00     451    72.1
 272   15:50   90.3     9    5.4    87      9.4   999.0    0.00     414    72.2
 272   16:00   90.2     9    3.3    59      7.9   999.0    0.00     360    72.3
 272   16:10   89.9     9    3.9    69      8.1   999.0    0.00     317    72.4
 272   16:20   89.4    10    2.9    69      5.2   999.0    0.00     279    72.5
 272   16:30   90.1    10    2.1     2      5.8   999.0    0.00     246    72.6
 272   16:40   89.7    10    1.8     5      4.1   999.0    0.00     212    72.7
 272   16:50   89.6    11    0.9   357      2.7   999.0    0.00     178    72.8
 272   17:00   88.3    11    1.6   339      3.0   999.0    0.00     144    73.0
 272   17:10   87.5    12    0.9   356      2.8   999.0    0.00     101    73.0
 272   17:20   84.1    14    1.5   344      2.8   999.0    0.00      26    73.1
 272   17:30   80.8    16    1.2   344      1.9   999.0    0.00      11    73.2
 272   17:40   79.0    16    1.3   352      2.3   999.0    0.00       9    73.3
 272   17:50   78.2    16    1.4     5      3.3   999.0    0.00       3    73.4
 272   18:00   77.7    16    1.3    46      2.7   999.0    0.00       1    73.5
 272   18:10   75.7    19    1.3    67      3.7   999.0    0.00       0    73.6
 272   18:20   74.5    20    1.5    44      3.5   999.0    0.00       0    73.7
 272   18:30   74.4    22    4.3    91      8.6   999.0    0.00       0    73.8
 272   18:40   75.7    18    7.5   103     12.9   999.0    0.00       0    73.9
 272   18:50   78.0    18    7.3   109     12.6   999.0    0.00       0    73.9
 272   19:00   77.5    19    6.8   105     12.1   999.0    0.00       0    74.0
 272   19:10   75.6    21    4.4   111      6.4   999.0    0.00       0    74.0
 272   19:20   75.5    20    3.7   118      7.4   999.0    0.00       0    74.1
 272   19:30   75.6    20    2.9   133      8.0   999.0    0.00       0    74.2
 272   19:40   74.3    20    1.7   132      5.0   999.0    0.00       0    74.2
 272   19:50   73.8    20    1.8   164      5.0   999.0    0.00       0    74.3
 272   20:00   73.5    20    3.2    96      9.8   999.0    0.00       0    74.3
 272   20:10   73.4    21    3.9   113      7.8   999.0    0.00       0    74.4
 272   20:20   71.6    23    4.7    92      8.5   999.0    0.00       0    74.4
 272   20:30   72.3    23    4.1   103     10.5   999.0    0.00       0    74.4
 272   20:40   71.6    22    2.8   130      5.3   999.0    0.00       0    74.4
 272   20:50   71.9    22    2.5   128      4.3   999.0    0.00       0    74.5
 272   21:00   71.0    23    2.2   126      5.1   999.0    0.00       0    74.5
 272   21:10   70.1    23    2.6   133      4.2   999.0    0.00       0    74.5
 272   21:20   70.2    22    2.4   129      5.3   999.0    0.00       0    74.5
 272   21:30   70.3    23    3.4   153      7.6   999.0    0.00       0    74.5
 272   21:40   70.5    22    3.1   156      5.8   999.0    0.00       0    74.5
 272   21:50   69.4    24    2.2   196      5.7   999.0    0.00       0    74.5
 272   22:00   67.3    26    1.3   231      2.5   999.0    0.00       0    74.5
 272   22:10   66.5    26    1.5   263      2.2   999.0    0.00       0    74.5
 272   22:20   66.7    26    2.0   296      2.9   999.0    0.00       0    74.5
 272   22:30   66.2    27    1.6   294      2.4   999.0    0.00       0    74.5
 272   22:40   64.3    29    0.7   300      1.7   999.0    0.00       0    74.5
 272   22:50   65.2    28    0.8   138      1.9   999.0    0.00       0    74.5
 272   23:00   64.7    29    1.0   313      2.0   999.0    0.00       0    74.5
 272   23:10   64.0    30    1.6   295      2.2   999.0    0.00       0    74.5
 272   23:20   64.8    29    1.1   294      2.5   999.0    0.00       0    74.4
 272   23:30   64.9    29    2.6   302      3.5   999.0    0.00       0    74.4
 272   23:40   63.7    31    3.2   301      4.1   999.0    0.00       0    74.4
 272   23:50   62.7    32    3.1   293      4.1   999.0    0.00       0    74.4
 273    0:00   64.9    31    2.5   314      4.6   999.0    0.00       0    74.4
 273    0:10   63.8    33    0.8   311      2.7   999.0    0.00       0    74.3
 273    0:20   63.5    33    1.1   343      3.1   999.0    0.00       0    74.3
 273    0:30   63.7    33    0.6    17      2.3   999.0    0.00       0    74.3
 273    0:40   62.4    35    0.3   128      2.3   999.0    0.00       0    74.2
 273    0:50   61.2    37    0.5   220      1.6   999.0    0.00       0    74.2
 273    1:00   60.5    37    0.7   169      1.9   999.0    0.00       0    74.2
 273    1:10   61.0    36    1.3   296      2.2   999.0    0.00       0    74.1
 273    1:20   61.1    35    1.5   224      2.2   999.0    0.00       0    74.1
 273    1:30   61.2    36    2.0   204      3.6   999.0    0.00       0    74.1
 273    1:40   60.7    37    1.5   186      3.7   999.0    0.00       0    74.0
 273    1:50   60.3    38    2.2   286      5.1   999.0    0.00       0    74.0
 273    2:00   60.7    36    2.9   304      4.3   999.0    0.00       0    74.0
 273    2:10   62.8    32    2.0   291      2.5   999.0    0.00       0    73.9
 273    2:20   63.3    31    1.7   264      2.5   999.0    0.00       0    73.9
 273    2:30   63.8    31    2.5   193      3.9   999.0    0.00       0    73.8
 273    2:40   65.4    31    2.7   184      4.7   999.0    0.00       0    73.8
 273    2:50   65.0    32    2.6   164      4.7   999.0    0.00       0    73.7
 273    3:00   64.7    33    2.1   147      3.8   999.0    0.00       0    73.7
 273    3:10   63.9    34    1.8   202      3.8   999.0    0.00       0    73.7
 273    3:20   62.5    36    1.5   287      2.7   999.0    0.00       0    73.6
 273    3:30   60.7    40    0.6   284      1.8   999.0    0.00       0    73.6
 273    3:40   59.8    41    0.0     0      0.0   999.0    0.00       0    73.5
 273    3:50   59.0    42    0.9    99      2.3   999.0    0.00       0    73.5
 273    4:00   59.0    41    0.0     0      0.0   999.0    0.00       0    73.5
 273    4:10   59.3    40    1.2   156      2.2   999.0    0.00       0    73.4
 273    4:20   59.4    39    0.0   156      0.8   999.0    0.00       0    73.3
 273    4:30   58.5    41    0.2   157      1.5   999.0    0.00       0    73.3
 273    4:40   57.4    43    0.1   211      0.9   999.0    0.00       0    73.3
 273    4:50   56.4    45    1.0   226      2.5   999.0    0.00       0    73.2
 273    5:00   57.2    44    1.9   248      3.5   999.0    0.00       0    73.2
 273    5:10   58.5    44    1.8   297      3.0   999.0    0.00       0    73.1
 273    5:20   58.6    45    2.0   177      4.0   999.0    0.00       0    73.1
 273    5:30   59.4    45    1.7   164      3.4   999.0    0.00       0    73.0
 273    5:40   59.8    44    1.3   155      3.6   999.0    0.00       1    73.0
 273    5:50   59.4    44    1.6   218      3.5   999.0    0.00       2    73.0
 273    6:00   58.7    46    2.1   242      3.1   999.0    0.00       6    72.9
 273    6:10   59.1    47    1.5   224      2.8   999.0    0.00      15    72.8
 273    6:20   58.5    48    1.5   220      3.3   999.0    0.00      22    72.8
 273    6:30   58.7    46    1.5   190      2.8   999.0    0.00      34    72.8
 273    6:40   59.6    42    2.0   200      3.9   999.0    0.00      46    72.7
 273    6:50   60.7    38    1.9   234      3.1   999.0    0.00      58    72.7
 273    7:00   60.5    39    1.8   286      2.7   999.0    0.00      69    72.6
 273    7:10   61.6    40    1.6   225      2.9   999.0    0.00      89    72.6
 273    7:20   63.9    40    2.2   185      4.9   999.0    0.00     116    72.5
 273    7:30   66.0    38    3.0   167      5.6   999.0    0.00     166    72.5
 273    7:40   69.1    34    3.7   161      7.8   999.0    0.00     364    72.4
 273    7:50   72.4    30    4.8   166      9.9   999.0    0.00     446    72.4
 273    8:00   74.5    27    4.6   158      9.0   999.0    0.00     485    72.3
 273    8:10   75.6    26    5.1   164     10.3   999.0    0.00     517    72.3
 273    8:20   76.3    25    5.5   160     12.2   999.0    0.00     526    72.2
 273    8:30   76.3    25    6.3   152     12.2   999.0    0.00     512    72.2
 273    8:40   76.8    24    5.9   158     11.6   999.0    0.00     538    72.2
 273    8:50   77.3    24    6.4   156     11.8   999.0    0.00     579    72.1
 273    9:00   78.1    23    5.7   157     11.3   999.0    0.00     577    72.1
 273    9:10   77.4    24    5.8   174     10.7   999.0    0.00     432    72.0
 273    9:20   77.8    23    6.8   185     11.4   999.0    0.00     666    72.0
 273    9:30   78.5    22    5.6   186     10.4   999.0    0.00     536    72.0
 273    9:40   78.0    22    5.7   168     13.7   999.0    0.00     390    71.9
 273    9:50   77.7    22    5.1   162      9.7   999.0    0.00     325    71.9
 273   10:00   78.1    22    5.1   163     10.2   999.0    0.00     410    71.9
 273   10:10   80.5    21    4.9   151      9.9   999.0    0.00     794    71.9
 273   10:20   80.0    20    5.1   166     10.3   999.0    0.00     554    71.8
 273   10:30   81.3    19    4.8   139     11.4   999.0    0.00     767    71.8
 273   10:40   81.6    19    4.3   186      8.7   999.0    0.00     909    71.8
 273   10:50   81.8    18    4.7   181      8.6   999.0    0.00     776    71.8
 273   11:00   80.7    18    5.0   181      9.2   999.0    0.00     384    71.8
 273   11:10   81.0    18    4.0   158      8.2   999.0    0.00     747    71.8
 273   11:20   83.0    16    2.6   157      7.2   999.0    0.00     874    71.8
 273   11:30   83.4    16    2.8   159      7.0   999.0    0.00     849    71.8
 273   11:40   83.6    16    2.8   155      7.0   999.0    0.00     868    71.8
 273   11:50   83.6    16    3.7   196      8.7   999.0    0.00     865    71.9
 273   12:00   83.8    16    3.7   214      8.4   999.0    0.00     684    71.9

Return to Frey Ranch - Fallon, Nevada graphs page.


Western Regional Climate Center,wrcc@dri.edu